sensor_id;sensor_type;location;lat;lon;timestamp;pressure;altitude;pressure_sealevel;temperature
41593;BMP180;28026;48.562;14.440;2023-02-23T00:02:00;93340.00;;;14.00
41593;BMP180;28026;48.562;14.440;2023-02-23T00:04:37;93346.00;;;13.90
41593;BMP180;28026;48.562;14.440;2023-02-23T00:07:08;93345.00;;;13.90
41593;BMP180;28026;48.562;14.440;2023-02-23T00:09:40;93342.00;;;14.00
41593;BMP180;28026;48.562;14.440;2023-02-23T00:12:11;93342.00;;;14.00
41593;BMP180;28026;48.562;14.440;2023-02-23T00:14:42;93340.00;;;14.00
41593;BMP180;28026;48.562;14.440;2023-02-23T00:17:13;93330.00;;;14.00
41593;BMP180;28026;48.562;14.440;2023-02-23T00:19:47;93334.00;;;13.90
41593;BMP180;28026;48.562;14.440;2023-02-23T00:22:18;93327.00;;;13.90
41593;BMP180;28026;48.562;14.440;2023-02-23T00:24:49;93334.00;;;13.80
41593;BMP180;28026;48.562;14.440;2023-02-23T00:27:20;93331.00;;;13.90
41593;BMP180;28026;48.562;14.440;2023-02-23T00:29:51;93333.00;;;13.80
41593;BMP180;28026;48.562;14.440;2023-02-23T00:32:22;93331.00;;;13.80
41593;BMP180;28026;48.562;14.440;2023-02-23T00:34:53;93332.00;;;13.70
41593;BMP180;28026;48.562;14.440;2023-02-23T00:37:24;93333.00;;;13.60
41593;BMP180;28026;48.562;14.440;2023-02-23T00:39:56;93327.00;;;13.60
41593;BMP180;28026;48.562;14.440;2023-02-23T00:42:26;93340.00;;;13.50
41593;BMP180;28026;48.562;14.440;2023-02-23T00:45:01;93334.00;;;13.50
41593;BMP180;28026;48.562;14.440;2023-02-23T00:47:43;93332.00;;;13.50
41593;BMP180;28026;48.562;14.440;2023-02-23T00:50:16;93329.00;;;13.50
41593;BMP180;28026;48.562;14.440;2023-02-23T00:52:48;93332.00;;;13.50
41593;BMP180;28026;48.562;14.440;2023-02-23T00:55:18;93331.00;;;13.50
41593;BMP180;28026;48.562;14.440;2023-02-23T00:57:49;93336.00;;;13.60
41593;BMP180;28026;48.562;14.440;2023-02-23T01:00:20;93333.00;;;13.60
41593;BMP180;28026;48.562;14.440;2023-02-23T01:02:51;93339.00;;;13.60
41593;BMP180;28026;48.562;14.440;2023-02-23T01:05:22;93337.00;;;13.60
41593;BMP180;28026;48.562;14.440;2023-02-23T01:07:53;93331.00;;;13.60
41593;BMP180;28026;48.562;14.440;2023-02-23T01:10:24;93337.00;;;13.60
41593;BMP180;28026;48.562;14.440;2023-02-23T01:12:55;93337.00;;;13.60
41593;BMP180;28026;48.562;14.440;2023-02-23T01:15:25;93333.00;;;13.60
41593;BMP180;28026;48.562;14.440;2023-02-23T01:17:57;93331.00;;;13.60
41593;BMP180;28026;48.562;14.440;2023-02-23T01:20:28;93332.00;;;13.60
41593;BMP180;28026;48.562;14.440;2023-02-23T01:22:59;93324.00;;;13.50
41593;BMP180;28026;48.562;14.440;2023-02-23T01:25:31;93325.00;;;13.50
41593;BMP180;28026;48.562;14.440;2023-02-23T01:28:03;93319.00;;;13.40
41593;BMP180;28026;48.562;14.440;2023-02-23T01:30:35;93319.00;;;13.30
41593;BMP180;28026;48.562;14.440;2023-02-23T01:33:07;93324.00;;;13.30
41593;BMP180;28026;48.562;14.440;2023-02-23T01:35:38;93321.00;;;13.20
41593;BMP180;28026;48.562;14.440;2023-02-23T01:38:10;93317.00;;;13.10
41593;BMP180;28026;48.562;14.440;2023-02-23T01:40:43;93317.00;;;13.10
41593;BMP180;28026;48.562;14.440;2023-02-23T01:43:19;93316.00;;;13.10
41593;BMP180;28026;48.562;14.440;2023-02-23T01:45:56;93305.00;;;13.00
41593;BMP180;28026;48.562;14.440;2023-02-23T01:48:38;93323.00;;;12.90
41593;BMP180;28026;48.562;14.440;2023-02-23T01:51:18;93310.00;;;12.80
41593;BMP180;28026;48.562;14.440;2023-02-23T01:54:09;93316.00;;;12.80
41593;BMP180;28026;48.562;14.440;2023-02-23T01:56:50;93311.00;;;12.80
41593;BMP180;28026;48.562;14.440;2023-02-23T01:59:42;93311.00;;;12.80
41593;BMP180;28026;48.562;14.440;2023-02-23T02:02:19;93308.00;;;12.80
41593;BMP180;28026;48.562;14.440;2023-02-23T02:04:52;93303.00;;;12.80
41593;BMP180;28026;48.562;14.440;2023-02-23T02:07:29;93303.00;;;12.80
41593;BMP180;28026;48.562;14.440;2023-02-23T02:10:01;93297.00;;;12.80
41593;BMP180;28026;48.562;14.440;2023-02-23T02:12:48;93298.00;;;12.80
41593;BMP180;28026;48.562;14.440;2023-02-23T02:15:29;93296.00;;;12.90
41593;BMP180;28026;48.562;14.440;2023-02-23T02:31:55;93289.00;;;12.70
41593;BMP180;28026;48.562;14.440;2023-02-23T02:35:21;93292.00;;;12.60
41593;BMP180;28026;48.562;14.440;2023-02-23T02:45:16;93291.00;;;12.70
41593;BMP180;28026;48.562;14.440;2023-02-23T02:48:08;93297.00;;;12.80
41593;BMP180;28026;48.562;14.440;2023-02-23T02:50:54;93291.00;;;12.80
41593;BMP180;28026;48.562;14.440;2023-02-23T02:54:08;93291.00;;;12.80
41593;BMP180;28026;48.562;14.440;2023-02-23T02:56:43;93286.00;;;12.80
41593;BMP180;28026;48.562;14.440;2023-02-23T02:59:19;93289.00;;;12.80
41593;BMP180;28026;48.562;14.440;2023-02-23T03:02:21;93287.00;;;12.80
41593;BMP180;28026;48.562;14.440;2023-02-23T03:05:17;93286.00;;;12.80
41593;BMP180;28026;48.562;14.440;2023-02-23T03:12:25;93282.00;;;12.70
41593;BMP180;28026;48.562;14.440;2023-02-23T03:18:49;93287.00;;;12.80
41593;BMP180;28026;48.562;14.440;2023-02-23T03:22:27;93294.00;;;12.80
41593;BMP180;28026;48.562;14.440;2023-02-23T03:25:47;93294.00;;;12.70
41593;BMP180;28026;48.562;14.440;2023-02-23T03:32:26;93298.00;;;12.60
41593;BMP180;28026;48.562;14.440;2023-02-23T03:38:40;93289.00;;;12.70
41593;BMP180;28026;48.562;14.440;2023-02-23T03:41:39;93300.00;;;12.70
41593;BMP180;28026;48.562;14.440;2023-02-23T03:44:42;93297.00;;;12.80
41593;BMP180;28026;48.562;14.440;2023-02-23T03:47:39;93293.00;;;12.80
41593;BMP180;28026;48.562;14.440;2023-02-23T03:50:40;93298.00;;;12.80
41593;BMP180;28026;48.562;14.440;2023-02-23T03:54:06;93304.00;;;12.80
41593;BMP180;28026;48.562;14.440;2023-02-23T03:57:04;93299.00;;;12.70
41593;BMP180;28026;48.562;14.440;2023-02-23T04:00:03;93303.00;;;12.70
41593;BMP180;28026;48.562;14.440;2023-02-23T04:02:59;93294.00;;;12.70
41593;BMP180;28026;48.562;14.440;2023-02-23T04:05:53;93298.00;;;12.70
41593;BMP180;28026;48.562;14.440;2023-02-23T04:08:47;93296.00;;;12.70
41593;BMP180;28026;48.562;14.440;2023-02-23T04:12:08;93300.00;;;12.70
41593;BMP180;28026;48.562;14.440;2023-02-23T04:15:11;93300.00;;;12.70
41593;BMP180;28026;48.562;14.440;2023-02-23T04:17:47;93297.00;;;12.70
41593;BMP180;28026;48.562;14.440;2023-02-23T04:20:19;93298.00;;;12.70
41593;BMP180;28026;48.562;14.440;2023-02-23T04:22:51;93298.00;;;12.70
41593;BMP180;28026;48.562;14.440;2023-02-23T04:25:22;93309.00;;;12.80
41593;BMP180;28026;48.562;14.440;2023-02-23T04:27:53;93301.00;;;12.80
41593;BMP180;28026;48.562;14.440;2023-02-23T04:30:24;93301.00;;;12.80
41593;BMP180;28026;48.562;14.440;2023-02-23T04:32:57;93303.00;;;12.80
41593;BMP180;28026;48.562;14.440;2023-02-23T04:35:29;93306.00;;;12.70
41593;BMP180;28026;48.562;14.440;2023-02-23T04:38:00;93303.00;;;12.70
41593;BMP180;28026;48.562;14.440;2023-02-23T04:40:32;93300.00;;;12.70
41593;BMP180;28026;48.562;14.440;2023-02-23T04:43:03;93303.00;;;12.70
41593;BMP180;28026;48.562;14.440;2023-02-23T04:45:34;93302.00;;;12.70
41593;BMP180;28026;48.562;14.440;2023-02-23T04:48:05;93295.00;;;12.60
41593;BMP180;28026;48.562;14.440;2023-02-23T04:50:37;93299.00;;;12.60
41593;BMP180;28026;48.562;14.440;2023-02-23T04:53:09;93301.00;;;12.50
41593;BMP180;28026;48.562;14.440;2023-02-23T04:55:40;93307.00;;;12.50
41593;BMP180;28026;48.562;14.440;2023-02-23T04:58:11;93300.00;;;12.50
41593;BMP180;28026;48.562;14.440;2023-02-23T05:00:43;93302.00;;;12.50
41593;BMP180;28026;48.562;14.440;2023-02-23T05:03:14;93295.00;;;12.50
41593;BMP180;28026;48.562;14.440;2023-02-23T05:05:47;93298.00;;;12.40
41593;BMP180;28026;48.562;14.440;2023-02-23T05:08:18;93292.00;;;12.40
41593;BMP180;28026;48.562;14.440;2023-02-23T05:10:49;93293.00;;;12.40
41593;BMP180;28026;48.562;14.440;2023-02-23T05:13:20;93294.00;;;12.40
41593;BMP180;28026;48.562;14.440;2023-02-23T05:15:55;93287.00;;;12.40
41593;BMP180;28026;48.562;14.440;2023-02-23T05:18:27;93294.00;;;12.40
41593;BMP180;28026;48.562;14.440;2023-02-23T05:21:04;93289.00;;;12.40
41593;BMP180;28026;48.562;14.440;2023-02-23T05:23:38;93292.00;;;12.40
41593;BMP180;28026;48.562;14.440;2023-02-23T05:26:12;93294.00;;;12.40
41593;BMP180;28026;48.562;14.440;2023-02-23T05:28:43;93294.00;;;12.40
41593;BMP180;28026;48.562;14.440;2023-02-23T05:31:14;93295.00;;;12.40
41593;BMP180;28026;48.562;14.440;2023-02-23T05:33:45;93297.00;;;12.40
41593;BMP180;28026;48.562;14.440;2023-02-23T05:36:19;93289.00;;;12.40
41593;BMP180;28026;48.562;14.440;2023-02-23T05:38:51;93296.00;;;12.30
41593;BMP180;28026;48.562;14.440;2023-02-23T05:41:22;93291.00;;;12.30
41593;BMP180;28026;48.562;14.440;2023-02-23T05:43:54;93300.00;;;12.30
41593;BMP180;28026;48.562;14.440;2023-02-23T05:46:26;93291.00;;;12.30
41593;BMP180;28026;48.562;14.440;2023-02-23T05:49:00;93294.00;;;12.30
41593;BMP180;28026;48.562;14.440;2023-02-23T05:51:33;93296.00;;;12.30
41593;BMP180;28026;48.562;14.440;2023-02-23T05:54:05;93302.00;;;12.30
41593;BMP180;28026;48.562;14.440;2023-02-23T05:56:36;93304.00;;;12.30
41593;BMP180;28026;48.562;14.440;2023-02-23T05:59:07;93315.00;;;12.20
41593;BMP180;28026;48.562;14.440;2023-02-23T06:01:38;93305.00;;;12.20
41593;BMP180;28026;48.562;14.440;2023-02-23T06:04:09;93299.00;;;12.20
41593;BMP180;28026;48.562;14.440;2023-02-23T06:06:39;93312.00;;;12.20
41593;BMP180;28026;48.562;14.440;2023-02-23T06:09:10;93310.00;;;12.20
41593;BMP180;28026;48.562;14.440;2023-02-23T06:11:41;93314.00;;;12.20
41593;BMP180;28026;48.562;14.440;2023-02-23T06:14:12;93303.00;;;12.20
41593;BMP180;28026;48.562;14.440;2023-02-23T06:16:43;93313.00;;;12.20
41593;BMP180;28026;48.562;14.440;2023-02-23T06:19:14;93308.00;;;12.20
41593;BMP180;28026;48.562;14.440;2023-02-23T06:21:45;93322.00;;;12.20
41593;BMP180;28026;48.562;14.440;2023-02-23T06:24:16;93321.00;;;12.20
41593;BMP180;28026;48.562;14.440;2023-02-23T06:26:49;93321.00;;;12.30
41593;BMP180;28026;48.562;14.440;2023-02-23T06:29:20;93324.00;;;12.30
41593;BMP180;28026;48.562;14.440;2023-02-23T06:31:51;93321.00;;;12.30
41593;BMP180;28026;48.562;14.440;2023-02-23T06:34:22;93327.00;;;12.30
41593;BMP180;28026;48.562;14.440;2023-02-23T06:36:53;93329.00;;;12.30
41593;BMP180;28026;48.562;14.440;2023-02-23T06:39:24;93335.00;;;12.30
41593;BMP180;28026;48.562;14.440;2023-02-23T06:41:55;93332.00;;;12.30
41593;BMP180;28026;48.562;14.440;2023-02-23T06:44:26;93338.00;;;12.30
41593;BMP180;28026;48.562;14.440;2023-02-23T06:46:57;93341.00;;;12.30
41593;BMP180;28026;48.562;14.440;2023-02-23T06:49:28;93341.00;;;12.40
41593;BMP180;28026;48.562;14.440;2023-02-23T06:51:59;93350.00;;;12.40
41593;BMP180;28026;48.562;14.440;2023-02-23T06:54:30;93339.00;;;12.40
41593;BMP180;28026;48.562;14.440;2023-02-23T06:57:03;93346.00;;;12.40
41593;BMP180;28026;48.562;14.440;2023-02-23T06:59:34;93344.00;;;12.40
41593;BMP180;28026;48.562;14.440;2023-02-23T07:02:06;93358.00;;;12.30
41593;BMP180;28026;48.562;14.440;2023-02-23T07:04:37;93358.00;;;12.30
41593;BMP180;28026;48.562;14.440;2023-02-23T07:07:08;93364.00;;;12.20
41593;BMP180;28026;48.562;14.440;2023-02-23T07:09:40;93366.00;;;12.10
41593;BMP180;28026;48.562;14.440;2023-02-23T07:12:12;93354.00;;;12.00
41593;BMP180;28026;48.562;14.440;2023-02-23T07:14:43;93367.00;;;11.90
41593;BMP180;28026;48.562;14.440;2023-02-23T07:17:14;93365.00;;;11.90
41593;BMP180;28026;48.562;14.440;2023-02-23T07:19:45;93362.00;;;11.90
41593;BMP180;28026;48.562;14.440;2023-02-23T07:22:16;93362.00;;;11.90
41593;BMP180;28026;48.562;14.440;2023-02-23T07:24:46;93373.00;;;11.90
41593;BMP180;28026;48.562;14.440;2023-02-23T07:27:17;93365.00;;;11.90
41593;BMP180;28026;48.562;14.440;2023-02-23T07:29:48;93360.00;;;11.90
41593;BMP180;28026;48.562;14.440;2023-02-23T07:32:19;93363.00;;;11.90
41593;BMP180;28026;48.562;14.440;2023-02-23T07:34:50;93370.00;;;12.00
41593;BMP180;28026;48.562;14.440;2023-02-23T07:37:21;93367.00;;;12.00
41593;BMP180;28026;48.562;14.440;2023-02-23T07:39:52;93368.00;;;12.10
41593;BMP180;28026;48.562;14.440;2023-02-23T07:42:23;93365.00;;;12.10
41593;BMP180;28026;48.562;14.440;2023-02-23T07:44:53;93359.00;;;12.10
41593;BMP180;28026;48.562;14.440;2023-02-23T07:47:25;93362.00;;;12.20
41593;BMP180;28026;48.562;14.440;2023-02-23T07:50:00;93363.00;;;12.30
41593;BMP180;28026;48.562;14.440;2023-02-23T07:52:32;93366.00;;;12.30
41593;BMP180;28026;48.562;14.440;2023-02-23T07:55:05;93357.00;;;12.30
41593;BMP180;28026;48.562;14.440;2023-02-23T07:57:37;93374.00;;;12.40
41593;BMP180;28026;48.562;14.440;2023-02-23T08:00:09;93368.00;;;12.50
41593;BMP180;28026;48.562;14.440;2023-02-23T08:02:41;93365.00;;;12.50
41593;BMP180;28026;48.562;14.440;2023-02-23T08:05:12;93369.00;;;12.50
41593;BMP180;28026;48.562;14.440;2023-02-23T08:07:42;93370.00;;;12.60
41593;BMP180;28026;48.562;14.440;2023-02-23T08:10:14;93366.00;;;12.70
41593;BMP180;28026;48.562;14.440;2023-02-23T08:12:44;93380.00;;;12.80
41593;BMP180;28026;48.562;14.440;2023-02-23T08:15:15;93377.00;;;12.80
41593;BMP180;28026;48.562;14.440;2023-02-23T08:17:46;93383.00;;;12.90
41593;BMP180;28026;48.562;14.440;2023-02-23T08:20:17;93383.00;;;12.90
41593;BMP180;28026;48.562;14.440;2023-02-23T08:22:55;93374.00;;;13.00
41593;BMP180;28026;48.562;14.440;2023-02-23T08:25:26;93381.00;;;13.10
41593;BMP180;28026;48.562;14.440;2023-02-23T08:27:57;93389.00;;;13.20
41593;BMP180;28026;48.562;14.440;2023-02-23T08:30:33;93383.00;;;13.20
41593;BMP180;28026;48.562;14.440;2023-02-23T08:33:04;93377.00;;;13.20
41593;BMP180;28026;48.562;14.440;2023-02-23T08:35:35;93379.00;;;13.20
41593;BMP180;28026;48.562;14.440;2023-02-23T08:38:06;93389.00;;;13.20
41593;BMP180;28026;48.562;14.440;2023-02-23T08:40:37;93380.00;;;13.30
41593;BMP180;28026;48.562;14.440;2023-02-23T08:43:08;93382.00;;;13.30
41593;BMP180;28026;48.562;14.440;2023-02-23T08:45:39;93376.00;;;13.30
41593;BMP180;28026;48.562;14.440;2023-02-23T08:48:10;93381.00;;;13.30
41593;BMP180;28026;48.562;14.440;2023-02-23T08:50:41;93378.00;;;13.30
41593;BMP180;28026;48.562;14.440;2023-02-23T08:53:11;93381.00;;;13.40
41593;BMP180;28026;48.562;14.440;2023-02-23T08:55:42;93377.00;;;13.40
41593;BMP180;28026;48.562;14.440;2023-02-23T08:58:13;93381.00;;;13.50
41593;BMP180;28026;48.562;14.440;2023-02-23T09:00:44;93376.00;;;13.60
41593;BMP180;28026;48.562;14.440;2023-02-23T09:03:15;93384.00;;;13.70
41593;BMP180;28026;48.562;14.440;2023-02-23T09:05:53;93385.00;;;13.80
41593;BMP180;28026;48.562;14.440;2023-02-23T09:08:25;93388.00;;;13.80
41593;BMP180;28026;48.562;14.440;2023-02-23T09:10:58;93382.00;;;13.90
41593;BMP180;28026;48.562;14.440;2023-02-23T09:13:30;93384.00;;;14.00
41593;BMP180;28026;48.562;14.440;2023-02-23T09:16:01;93374.00;;;14.10
41593;BMP180;28026;48.562;14.440;2023-02-23T09:18:34;93382.00;;;14.30
41593;BMP180;28026;48.562;14.440;2023-02-23T09:21:09;93384.00;;;14.40
41593;BMP180;28026;48.562;14.440;2023-02-23T09:23:48;93389.00;;;14.60
41593;BMP180;28026;48.562;14.440;2023-02-23T09:26:22;93385.00;;;14.70
41593;BMP180;28026;48.562;14.440;2023-02-23T09:28:58;93387.00;;;14.70
41593;BMP180;28026;48.562;14.440;2023-02-23T09:31:30;93390.00;;;14.70
41593;BMP180;28026;48.562;14.440;2023-02-23T09:34:02;93390.00;;;14.80
41593;BMP180;28026;48.562;14.440;2023-02-23T09:36:33;93387.00;;;14.80
41593;BMP180;28026;48.562;14.440;2023-02-23T09:39:04;93394.00;;;14.90
41593;BMP180;28026;48.562;14.440;2023-02-23T09:42:15;93393.00;;;15.00
41593;BMP180;28026;48.562;14.440;2023-02-23T09:48:22;93397.00;;;15.00
41593;BMP180;28026;48.562;14.440;2023-02-23T09:50:57;93402.00;;;15.00
41593;BMP180;28026;48.562;14.440;2023-02-23T09:53:43;93411.00;;;15.00
41593;BMP180;28026;48.562;14.440;2023-02-23T09:56:35;93407.00;;;15.00
41593;BMP180;28026;48.562;14.440;2023-02-23T09:59:17;93404.00;;;15.00
41593;BMP180;28026;48.562;14.440;2023-02-23T10:05:03;93403.00;;;15.00
41593;BMP180;28026;48.562;14.440;2023-02-23T10:07:55;93397.00;;;15.00
41593;BMP180;28026;48.562;14.440;2023-02-23T10:10:50;93408.00;;;15.10
41593;BMP180;28026;48.562;14.440;2023-02-23T10:20:02;93403.00;;;15.60
41593;BMP180;28026;48.562;14.440;2023-02-23T10:22:45;93403.00;;;15.70
41593;BMP180;28026;48.562;14.440;2023-02-23T10:25:30;93398.00;;;15.80
41593;BMP180;28026;48.562;14.440;2023-02-23T10:28:13;93400.00;;;15.80
41593;BMP180;28026;48.562;14.440;2023-02-23T10:30:48;93401.00;;;15.80
41593;BMP180;28026;48.562;14.440;2023-02-23T10:33:35;93388.00;;;15.80
41593;BMP180;28026;48.562;14.440;2023-02-23T10:36:28;93393.00;;;15.80
41593;BMP180;28026;48.562;14.440;2023-02-23T10:39:07;93385.00;;;15.90
41593;BMP180;28026;48.562;14.440;2023-02-23T10:41:40;93378.00;;;15.90
41593;BMP180;28026;48.562;14.440;2023-02-23T10:44:23;93386.00;;;16.00
41593;BMP180;28026;48.562;14.440;2023-02-23T10:47:07;93376.00;;;16.00
41593;BMP180;28026;48.562;14.440;2023-02-23T10:49:50;93372.00;;;16.00
41593;BMP180;28026;48.562;14.440;2023-02-23T10:52:34;93384.00;;;16.10
41593;BMP180;28026;48.562;14.440;2023-02-23T10:55:27;93380.00;;;16.00
41593;BMP180;28026;48.562;14.440;2023-02-23T11:01:02;93386.00;;;16.10
41593;BMP180;28026;48.562;14.440;2023-02-23T11:03:45;93384.00;;;16.30
41593;BMP180;28026;48.562;14.440;2023-02-23T11:06:34;93382.00;;;16.50
41593;BMP180;28026;48.562;14.440;2023-02-23T11:09:27;93368.00;;;16.80
41593;BMP180;28026;48.562;14.440;2023-02-23T11:12:12;93374.00;;;17.00
41593;BMP180;28026;48.562;14.440;2023-02-23T11:14:56;93368.00;;;17.10
41593;BMP180;28026;48.562;14.440;2023-02-23T11:17:36;93371.00;;;17.20
41593;BMP180;28026;48.562;14.440;2023-02-23T11:22:47;93366.00;;;17.70
41593;BMP180;28026;48.562;14.440;2023-02-23T11:25:29;93364.00;;;18.00
41593;BMP180;28026;48.562;14.440;2023-02-23T11:28:02;93369.00;;;18.20
41593;BMP180;28026;48.562;14.440;2023-02-23T11:30:36;93366.00;;;18.30
41593;BMP180;28026;48.562;14.440;2023-02-23T11:33:29;93364.00;;;18.40
41593;BMP180;28026;48.562;14.440;2023-02-23T11:36:26;93362.00;;;18.30
41593;BMP180;28026;48.562;14.440;2023-02-23T11:39:14;93357.00;;;18.30
41593;BMP180;28026;48.562;14.440;2023-02-23T11:42:16;93369.00;;;18.30
41593;BMP180;28026;48.562;14.440;2023-02-23T11:45:17;93361.00;;;18.00
41593;BMP180;28026;48.562;14.440;2023-02-23T11:47:55;93358.00;;;17.80
41593;BMP180;28026;48.562;14.440;2023-02-23T11:50:33;93361.00;;;17.60
41593;BMP180;28026;48.562;14.440;2023-02-23T11:53:15;93356.00;;;17.50
41593;BMP180;28026;48.562;14.440;2023-02-23T11:55:51;93358.00;;;17.30
41593;BMP180;28026;48.562;14.440;2023-02-23T12:01:22;93351.00;;;17.10
41593;BMP180;28026;48.562;14.440;2023-02-23T12:04:35;93351.00;;;17.00
41593;BMP180;28026;48.562;14.440;2023-02-23T12:07:44;93355.00;;;17.00
41593;BMP180;28026;48.562;14.440;2023-02-23T12:10:42;93351.00;;;16.90
41593;BMP180;28026;48.562;14.440;2023-02-23T12:13:33;93348.00;;;16.90
41593;BMP180;28026;48.562;14.440;2023-02-23T12:16:18;93353.00;;;17.00
41593;BMP180;28026;48.562;14.440;2023-02-23T12:19:24;93350.00;;;17.10
41593;BMP180;28026;48.562;14.440;2023-02-23T12:22:25;93344.00;;;17.20
41593;BMP180;28026;48.562;14.440;2023-02-23T12:25:38;93350.00;;;17.30
41593;BMP180;28026;48.562;14.440;2023-02-23T12:28:36;93340.00;;;17.30
41593;BMP180;28026;48.562;14.440;2023-02-23T12:31:45;93342.00;;;17.30
41593;BMP180;28026;48.562;14.440;2023-02-23T12:34:48;93341.00;;;17.30
41593;BMP180;28026;48.562;14.440;2023-02-23T12:37:44;93331.00;;;17.40
41593;BMP180;28026;48.562;14.440;2023-02-23T12:40:32;93339.00;;;17.40
41593;BMP180;28026;48.562;14.440;2023-02-23T12:43:18;93345.00;;;17.50
41593;BMP180;28026;48.562;14.440;2023-02-23T12:46:23;93337.00;;;17.50
41593;BMP180;28026;48.562;14.440;2023-02-23T12:49:36;93342.00;;;17.50
41593;BMP180;28026;48.562;14.440;2023-02-23T12:52:25;93332.00;;;17.50
41593;BMP180;28026;48.562;14.440;2023-02-23T12:55:02;93330.00;;;17.50
41593;BMP180;28026;48.562;14.440;2023-02-23T12:57:53;93330.00;;;17.50
41593;BMP180;28026;48.562;14.440;2023-02-23T13:00:50;93330.00;;;17.50
41593;BMP180;28026;48.562;14.440;2023-02-23T13:07:47;93331.00;;;17.30
41593;BMP180;28026;48.562;14.440;2023-02-23T13:10:47;93323.00;;;17.20
41593;BMP180;28026;48.562;14.440;2023-02-23T13:16:53;93324.00;;;17.20
41593;BMP180;28026;48.562;14.440;2023-02-23T13:19:58;93322.00;;;17.20
41593;BMP180;28026;48.562;14.440;2023-02-23T13:22:50;93321.00;;;17.10
41593;BMP180;28026;48.562;14.440;2023-02-23T13:25:44;93317.00;;;17.10
41593;BMP180;28026;48.562;14.440;2023-02-23T13:28:50;93312.00;;;17.10
41593;BMP180;28026;48.562;14.440;2023-02-23T13:31:32;93319.00;;;17.20
41593;BMP180;28026;48.562;14.440;2023-02-23T13:34:14;93312.00;;;17.30
41593;BMP180;28026;48.562;14.440;2023-02-23T13:37:05;93314.00;;;17.30
41593;BMP180;28026;48.562;14.440;2023-02-23T13:40:14;93315.00;;;17.30
41593;BMP180;28026;48.562;14.440;2023-02-23T13:48:57;93315.00;;;17.20
41593;BMP180;28026;48.562;14.440;2023-02-23T13:51:57;93314.00;;;17.30
41593;BMP180;28026;48.562;14.440;2023-02-23T13:54:34;93315.00;;;17.30
41593;BMP180;28026;48.562;14.440;2023-02-23T13:57:14;93316.00;;;17.40
41593;BMP180;28026;48.562;14.440;2023-02-23T13:59:50;93316.00;;;17.40
41593;BMP180;28026;48.562;14.440;2023-02-23T14:02:34;93323.00;;;17.50
41593;BMP180;28026;48.562;14.440;2023-02-23T14:05:23;93321.00;;;17.40
41593;BMP180;28026;48.562;14.440;2023-02-23T14:08:03;93312.00;;;17.30
41593;BMP180;28026;48.562;14.440;2023-02-23T14:10:39;93317.00;;;17.30
41593;BMP180;28026;48.562;14.440;2023-02-23T14:15:49;93319.00;;;17.30
41593;BMP180;28026;48.562;14.440;2023-02-23T14:19:12;93311.00;;;17.30
41593;BMP180;28026;48.562;14.440;2023-02-23T14:22:16;93311.00;;;17.30
41593;BMP180;28026;48.562;14.440;2023-02-23T14:28:31;93312.00;;;17.30
41593;BMP180;28026;48.562;14.440;2023-02-23T14:39:17;93317.00;;;17.50
41593;BMP180;28026;48.562;14.440;2023-02-23T14:42:05;93313.00;;;17.50
41593;BMP180;28026;48.562;14.440;2023-02-23T14:44:37;93307.00;;;17.50
41593;BMP180;28026;48.562;14.440;2023-02-23T14:47:17;93321.00;;;17.50
41593;BMP180;28026;48.562;14.440;2023-02-23T14:50:00;93313.00;;;17.50
41593;BMP180;28026;48.562;14.440;2023-02-23T14:52:35;93313.00;;;17.50
41593;BMP180;28026;48.562;14.440;2023-02-23T14:57:42;93308.00;;;17.50
41593;BMP180;28026;48.562;14.440;2023-02-23T15:03:06;93318.00;;;17.50
41593;BMP180;28026;48.562;14.440;2023-02-23T15:06:00;93311.00;;;17.50
41593;BMP180;28026;48.562;14.440;2023-02-23T15:08:34;93316.00;;;17.40
41593;BMP180;28026;48.562;14.440;2023-02-23T15:11:14;93317.00;;;17.40
41593;BMP180;28026;48.562;14.440;2023-02-23T15:13:49;93302.00;;;17.30
41593;BMP180;28026;48.562;14.440;2023-02-23T15:16:31;93309.00;;;17.30
41593;BMP180;28026;48.562;14.440;2023-02-23T15:19:05;93304.00;;;17.30
41593;BMP180;28026;48.562;14.440;2023-02-23T15:21:37;93302.00;;;17.30
41593;BMP180;28026;48.562;14.440;2023-02-23T15:24:13;93303.00;;;17.30
41593;BMP180;28026;48.562;14.440;2023-02-23T15:26:51;93303.00;;;17.20
41593;BMP180;28026;48.562;14.440;2023-02-23T15:29:30;93300.00;;;17.20
41593;BMP180;28026;48.562;14.440;2023-02-23T15:32:22;93298.00;;;17.20
41593;BMP180;28026;48.562;14.440;2023-02-23T15:34:54;93296.00;;;17.20
41593;BMP180;28026;48.562;14.440;2023-02-23T15:37:42;93305.00;;;17.20
41593;BMP180;28026;48.562;14.440;2023-02-23T15:40:20;93293.00;;;17.20
41593;BMP180;28026;48.562;14.440;2023-02-23T15:42:56;93296.00;;;17.20
41593;BMP180;28026;48.562;14.440;2023-02-23T15:45:39;93295.00;;;17.20
41593;BMP180;28026;48.562;14.440;2023-02-23T15:48:27;93293.00;;;17.20
41593;BMP180;28026;48.562;14.440;2023-02-23T15:51:39;93294.00;;;17.20
41593;BMP180;28026;48.562;14.440;2023-02-23T15:54:27;93293.00;;;17.20
41593;BMP180;28026;48.562;14.440;2023-02-23T15:57:06;93297.00;;;17.10
41593;BMP180;28026;48.562;14.440;2023-02-23T15:59:47;93301.00;;;17.10
41593;BMP180;28026;48.562;14.440;2023-02-23T16:02:22;93294.00;;;17.00
41593;BMP180;28026;48.562;14.440;2023-02-23T16:04:54;93295.00;;;17.00
41593;BMP180;28026;48.562;14.440;2023-02-23T16:07:39;93286.00;;;16.90
41593;BMP180;28026;48.562;14.440;2023-02-23T16:10:25;93289.00;;;16.90
41593;BMP180;28026;48.562;14.440;2023-02-23T16:12:59;93292.00;;;16.90
41593;BMP180;28026;48.562;14.440;2023-02-23T16:15:36;93290.00;;;16.90
41593;BMP180;28026;48.562;14.440;2023-02-23T16:18:15;93294.00;;;16.80
41593;BMP180;28026;48.562;14.440;2023-02-23T16:20:53;93285.00;;;16.70
41593;BMP180;28026;48.562;14.440;2023-02-23T16:23:36;93285.00;;;16.70
41593;BMP180;28026;48.562;14.440;2023-02-23T16:26:48;93290.00;;;16.60
41593;BMP180;28026;48.562;14.440;2023-02-23T16:29:40;93289.00;;;16.40
41593;BMP180;28026;48.562;14.440;2023-02-23T16:32:20;93285.00;;;16.30
41593;BMP180;28026;48.562;14.440;2023-02-23T16:34:59;93279.00;;;16.10
41593;BMP180;28026;48.562;14.440;2023-02-23T16:37:32;93277.00;;;16.10
41593;BMP180;28026;48.562;14.440;2023-02-23T16:40:18;93278.00;;;16.00